createdAt,value
2018-07-07T00:01:28.177Z,14.43
2018-07-07T00:03:57.366Z,15.90
2018-07-07T00:06:25.842Z,16.47
2018-07-07T00:08:58.404Z,16.77
2018-07-07T00:11:26.808Z,16.00
2018-07-07T00:13:55.282Z,15.80
2018-07-07T00:16:23.748Z,15.58
2018-07-07T00:18:52.080Z,14.67
2018-07-07T00:21:20.626Z,15.05
2018-07-07T00:23:49.053Z,16.02
2018-07-07T00:26:17.810Z,16.33
2018-07-07T00:28:46.635Z,16.77
2018-07-07T00:31:15.893Z,16.40
2018-07-07T00:33:44.251Z,16.23
2018-07-07T00:36:12.636Z,16.45
2018-07-07T00:38:41.929Z,16.52
2018-07-07T00:41:10.298Z,18.07
2018-07-07T00:43:38.687Z,16.65
2018-07-07T00:46:07.014Z,17.82
2018-07-07T00:48:39.326Z,17.07
2018-07-07T00:51:08.209Z,16.02
2018-07-07T00:53:36.447Z,17.13
2018-07-07T00:56:04.816Z,17.10
2018-07-07T00:58:33.129Z,15.90
2018-07-07T01:01:01.397Z,18.05
2018-07-07T01:03:29.796Z,16.85
2018-07-07T01:05:58.357Z,16.82
2018-07-07T01:08:26.757Z,16.65
2018-07-07T01:10:55.091Z,16.55
2018-07-07T01:13:23.634Z,17.55
2018-07-07T01:15:51.956Z,17.17
2018-07-07T01:18:21.600Z,17.52
2018-07-07T01:20:50.169Z,16.82
2018-07-07T01:23:19.070Z,17.98
2018-07-07T01:25:47.929Z,17.57
2018-07-07T01:28:16.213Z,16.85
2018-07-07T01:30:44.497Z,16.80
2018-07-07T01:33:12.870Z,17.77
2018-07-07T01:35:41.163Z,15.15
2018-07-07T01:38:09.734Z,17.05
2018-07-07T01:40:38.974Z,14.78
2018-07-07T01:43:07.345Z,15.18
2018-07-07T01:45:35.699Z,15.63
2018-07-07T01:48:04.201Z,15.55
2018-07-07T01:50:33.187Z,15.93
2018-07-07T01:53:01.623Z,15.93
2018-07-07T01:55:30.145Z,14.95
2018-07-07T01:57:59.489Z,15.40
2018-07-07T02:00:27.974Z,14.40
2018-07-07T02:02:56.985Z,14.35
2018-07-07T02:05:30.085Z,13.62
2018-07-07T02:07:58.991Z,16.20
2018-07-07T02:10:27.296Z,16.40
2018-07-07T02:12:55.516Z,17.77
2018-07-07T02:15:24.451Z,15.90
2018-07-07T02:17:52.865Z,14.87
2018-07-07T02:20:21.392Z,15.75
2018-07-07T02:22:50.766Z,13.25
2018-07-07T02:25:19.502Z,13.78
2018-07-07T02:27:47.822Z,13.70
2018-07-07T02:30:16.178Z,15.23
2018-07-07T02:32:45.307Z,13.90
2018-07-07T02:35:13.472Z,13.68
2018-07-07T02:37:41.771Z,13.13
2018-07-07T02:40:10.180Z,12.53
2018-07-07T02:42:38.556Z,11.65
2018-07-07T02:45:06.991Z,12.25
2018-07-07T02:47:35.164Z,12.30
2018-07-07T02:50:04.174Z,12.43
2018-07-07T02:52:33.113Z,13.00
2018-07-07T02:55:01.558Z,12.10
2018-07-07T02:57:30.134Z,11.53
2018-07-07T02:59:58.433Z,10.95
2018-07-07T03:02:27.310Z,11.18
2018-07-07T03:04:55.992Z,10.53
2018-07-07T03:07:24.371Z,10.88
2018-07-07T03:09:52.848Z,10.60
2018-07-07T03:12:21.189Z,11.08
2018-07-07T03:14:49.502Z,10.50
2018-07-07T03:17:18.606Z,11.95
2018-07-07T03:19:51.286Z,11.35
2018-07-07T03:22:23.933Z,10.75
2018-07-07T03:24:56.822Z,11.65
2018-07-07T03:27:25.814Z,10.82
2018-07-07T03:29:54.929Z,10.98
2018-07-07T03:32:23.298Z,10.90
2018-07-07T03:34:52.278Z,11.88
2018-07-07T03:37:25.521Z,11.20
2018-07-07T03:39:53.925Z,12.80
2018-07-07T03:42:22.480Z,12.65
2018-07-07T03:44:50.935Z,12.78
2018-07-07T03:47:19.353Z,12.70
2018-07-07T03:49:52.083Z,11.85
2018-07-07T03:52:20.477Z,12.23
2018-07-07T03:54:49.033Z,11.33
2018-07-07T03:57:17.293Z,11.30
2018-07-07T03:59:45.896Z,11.12
2018-07-07T04:02:14.726Z,12.78
2018-07-07T04:04:43.227Z,12.23
2018-07-07T04:07:11.625Z,11.33
2018-07-07T04:09:40.449Z,10.10
2018-07-07T04:12:08.865Z,8.90
2018-07-07T04:14:37.533Z,10.87
2018-07-07T04:17:06.008Z,11.20
2018-07-07T04:19:35.776Z,9.97
2018-07-07T04:22:08.112Z,10.63
2018-07-07T04:24:36.748Z,11.97
2018-07-07T04:27:05.065Z,11.60
2018-07-07T04:29:33.396Z,12.13
2018-07-07T04:32:01.882Z,12.47
2018-07-07T04:34:30.204Z,11.40
2018-07-07T04:36:58.843Z,11.33
2018-07-07T04:39:27.221Z,12.53
2018-07-07T04:41:55.786Z,11.80
2018-07-07T04:44:24.172Z,12.50
2018-07-07T04:46:53.570Z,13.03
2018-07-07T04:49:22.879Z,11.83
2018-07-07T04:51:51.358Z,12.90
2018-07-07T04:54:19.834Z,14.60
2018-07-07T04:56:48.242Z,15.40
2018-07-07T04:59:16.604Z,14.23
2018-07-07T05:01:45.090Z,14.60
2018-07-07T05:04:13.769Z,15.23
2018-07-07T05:06:42.233Z,16.40
2018-07-07T05:09:11.249Z,14.77
2018-07-07T05:11:40.639Z,16.23
2018-07-07T05:14:08.970Z,16.10
2018-07-07T05:16:38.816Z,16.80
2018-07-07T05:19:07.083Z,14.00
2018-07-07T05:21:35.241Z,13.60
2018-07-07T05:24:03.442Z,15.03
2018-07-07T05:26:31.613Z,15.10
2018-07-07T05:28:59.840Z,13.13
2018-07-07T05:31:28.080Z,14.40
2018-07-07T05:33:56.327Z,12.03
2018-07-07T05:36:24.702Z,13.87
2018-07-07T05:38:53.058Z,15.17
2018-07-07T05:44:23.737Z,16.23
2018-07-07T05:46:52.013Z,16.20
2018-07-07T05:49:20.237Z,16.50
2018-07-07T05:51:48.714Z,17.83
2018-07-07T05:54:16.847Z,17.13
2018-07-07T05:56:45.400Z,15.53
2018-07-07T05:59:13.693Z,16.90
2018-07-07T06:01:42.462Z,15.80
2018-07-07T06:04:10.725Z,15.83
2018-07-07T06:06:38.937Z,14.30
2018-07-07T06:09:07.259Z,13.90
2018-07-07T06:11:35.728Z,12.90
2018-07-07T06:14:04.208Z,15.10
2018-07-07T06:16:32.408Z,15.00
2018-07-07T06:19:00.742Z,13.97
2018-07-07T06:21:29.067Z,15.47
2018-07-07T06:23:57.360Z,15.30
2018-07-07T06:26:25.673Z,15.93
2018-07-07T06:28:53.974Z,14.53
2018-07-07T06:31:22.173Z,17.30
2018-07-07T06:33:50.586Z,16.87
2018-07-07T06:36:18.902Z,16.87
2018-07-07T06:38:47.667Z,15.53
2018-07-07T06:41:16.031Z,16.73
2018-07-07T06:43:44.490Z,17.33
2018-07-07T06:46:13.503Z,16.60
2018-07-07T06:48:42.002Z,16.03
2018-07-07T06:51:10.554Z,16.30
2018-07-07T06:53:39.231Z,15.87
2018-07-07T06:56:07.461Z,15.60
2018-07-07T06:58:36.077Z,16.63
2018-07-07T07:01:04.498Z,15.20
2018-07-07T07:03:32.807Z,16.30
2018-07-07T07:06:01.031Z,14.80
2018-07-07T07:08:31.309Z,13.70
2018-07-07T07:10:59.665Z,13.90
2018-07-07T07:13:27.901Z,14.43
2018-07-07T07:15:56.202Z,13.00
2018-07-07T07:18:24.418Z,14.67
2018-07-07T07:20:52.887Z,14.43
2018-07-07T07:23:21.186Z,14.80
2018-07-07T07:25:49.951Z,14.53
2018-07-07T07:28:18.135Z,16.40
2018-07-07T07:30:46.506Z,14.57
2018-07-07T07:33:14.783Z,15.87
2018-07-07T07:35:43.091Z,15.30
2018-07-07T07:38:11.416Z,15.77
2018-07-07T07:40:39.698Z,16.20
2018-07-07T07:43:08.154Z,16.60
2018-07-07T07:45:36.545Z,16.30
2018-07-07T07:48:04.833Z,15.27
2018-07-07T07:50:32.996Z,16.97
2018-07-07T07:53:01.368Z,17.83
2018-07-07T07:55:29.868Z,18.20
2018-07-07T07:57:58.114Z,17.47
2018-07-07T08:00:26.437Z,17.10
2018-07-07T08:02:55.027Z,17.70
2018-07-07T08:05:23.274Z,17.20
2018-07-07T08:07:51.696Z,17.27
2018-07-07T08:10:19.954Z,15.93
2018-07-07T08:12:48.526Z,17.10
2018-07-07T08:15:16.879Z,18.07
2018-07-07T08:17:45.199Z,17.40
2018-07-07T08:20:13.492Z,16.77
2018-07-07T08:22:42.258Z,17.47
2018-07-07T08:25:10.985Z,16.10
2018-07-07T08:27:39.243Z,16.10
2018-07-07T08:30:07.489Z,15.47
2018-07-07T08:32:35.745Z,14.70
2018-07-07T08:35:06.045Z,13.77
2018-07-07T08:37:34.903Z,14.43
2018-07-07T08:40:03.266Z,14.50
2018-07-07T08:42:31.798Z,12.10
2018-07-07T08:45:00.132Z,12.53
2018-07-07T08:47:28.715Z,12.50
2018-07-07T08:50:00.097Z,9.53
2018-07-07T08:52:28.533Z,10.20
2018-07-07T08:54:59.090Z,9.17
2018-07-07T08:57:27.427Z,8.80
2018-07-07T08:59:57.810Z,11.60
2018-07-07T09:02:26.489Z,9.63
2018-07-07T09:04:54.961Z,10.50
2018-07-07T09:07:23.358Z,12.20
2018-07-07T09:09:52.234Z,11.27
2018-07-07T09:12:20.426Z,13.00
2018-07-07T09:14:48.653Z,11.47
2018-07-07T09:17:16.834Z,11.60
2018-07-07T09:19:44.980Z,9.70
2018-07-07T09:22:13.194Z,9.80
2018-07-07T09:24:41.345Z,8.80
2018-07-07T09:27:09.666Z,11.07
2018-07-07T09:29:37.986Z,11.73
2018-07-07T09:32:06.288Z,12.87
2018-07-07T09:34:34.520Z,13.00
2018-07-07T09:37:02.910Z,13.33
2018-07-07T09:39:31.184Z,14.10
2018-07-07T09:41:59.546Z,14.93
2018-07-07T09:44:27.870Z,13.70
2018-07-07T09:46:56.329Z,11.57
2018-07-07T09:49:25.206Z,13.10
2018-07-07T09:51:53.512Z,15.30
2018-07-07T09:54:21.801Z,16.33
2018-07-07T09:56:50.077Z,13.37
2018-07-07T09:59:18.407Z,15.00
2018-07-07T10:01:46.840Z,13.20
2018-07-07T10:04:17.152Z,13.70
2018-07-07T10:06:45.803Z,14.33
2018-07-07T10:09:14.339Z,13.30
2018-07-07T10:11:43.154Z,14.13
2018-07-07T10:14:11.733Z,17.83
2018-07-07T10:16:40.146Z,13.50
2018-07-07T10:19:08.693Z,13.47
2018-07-07T10:21:37.415Z,16.10
2018-07-07T10:24:06.071Z,17.20
2018-07-07T10:26:34.533Z,18.53
2018-07-07T10:29:03.117Z,16.47
2018-07-07T10:31:31.456Z,15.03
2018-07-07T10:33:59.830Z,15.90
2018-07-07T10:36:28.365Z,15.30
2018-07-07T10:38:56.721Z,21.07
2018-07-07T10:41:24.964Z,17.87
2018-07-07T10:43:53.313Z,16.10
2018-07-07T10:46:21.819Z,16.27
2018-07-07T10:48:50.394Z,19.03
2018-07-07T10:51:18.571Z,18.43
2018-07-07T10:53:46.893Z,19.87
2018-07-07T10:56:15.225Z,17.70
2018-07-07T10:58:43.563Z,19.67
2018-07-07T11:01:11.768Z,19.27
2018-07-07T11:03:40.105Z,18.17
2018-07-07T11:06:08.685Z,16.37
2018-07-07T11:08:36.810Z,14.07
2018-07-07T11:11:04.985Z,14.23
2018-07-07T11:13:33.090Z,14.23
2018-07-07T11:16:02.944Z,17.10
2018-07-07T11:18:31.091Z,16.53
2018-07-07T11:20:59.399Z,13.50
2018-07-07T11:23:27.848Z,14.10
2018-07-07T11:25:56.178Z,12.73
2018-07-07T11:28:28.883Z,11.77
2018-07-07T11:30:57.124Z,13.47
2018-07-07T11:33:25.599Z,11.70
2018-07-07T11:35:53.895Z,12.20
2018-07-07T11:38:22.261Z,9.97
2018-07-07T11:40:50.637Z,9.07
2018-07-07T11:43:18.811Z,8.97
2018-07-07T11:45:47.114Z,8.87
2018-07-07T11:48:15.377Z,9.93
2018-07-07T11:50:43.631Z,7.80
2018-07-07T11:53:12.068Z,7.63
2018-07-07T11:55:42.504Z,8.83
2018-07-07T11:58:11.186Z,9.17
2018-07-07T12:00:39.733Z,9.07
2018-07-07T12:03:08.034Z,8.03
2018-07-07T12:05:36.285Z,10.03
2018-07-07T12:08:13.873Z,9.40
2018-07-07T12:10:33.372Z,11.77
2018-07-07T12:13:02.565Z,9.87
2018-07-07T12:15:30.970Z,10.60
2018-07-07T12:17:59.293Z,7.50
2018-07-07T12:20:27.721Z,9.57
2018-07-07T12:22:55.978Z,9.80
2018-07-07T12:25:24.482Z,8.33
2018-07-07T12:27:52.696Z,7.23
2018-07-07T12:30:20.947Z,7.93
2018-07-07T12:32:49.695Z,8.97
2018-07-07T12:35:18.071Z,9.70
2018-07-07T12:37:46.803Z,8.57
2018-07-07T12:40:15.154Z,11.70
2018-07-07T12:42:43.501Z,8.40
2018-07-07T12:45:12.048Z,7.73
2018-07-07T12:47:40.354Z,8.40
2018-07-07T12:50:08.905Z,7.50
2018-07-07T12:52:37.180Z,9.00
2018-07-07T12:55:05.557Z,8.03
2018-07-07T12:57:34.324Z,6.00
2018-07-07T13:00:03.134Z,7.17
2018-07-07T13:02:31.451Z,6.87
2018-07-07T13:04:59.731Z,6.47
2018-07-07T13:07:28.770Z,6.70
2018-07-07T13:09:57.185Z,5.87
2018-07-07T13:12:25.558Z,6.60
2018-07-07T13:14:53.899Z,7.60
2018-07-07T13:17:22.535Z,6.90
2018-07-07T13:19:50.880Z,6.13
2018-07-07T13:22:19.392Z,6.47
2018-07-07T13:24:47.694Z,6.90
2018-07-07T13:27:16.005Z,5.87
2018-07-07T13:29:44.516Z,6.50
2018-07-07T13:32:12.971Z,5.30
2018-07-07T13:34:41.276Z,5.07
2018-07-07T13:37:10.527Z,4.93
2018-07-07T13:39:40.031Z,5.73
2018-07-07T13:42:10.019Z,6.50
2018-07-07T13:44:38.676Z,5.30
2018-07-07T13:47:07.889Z,5.77
2018-07-07T13:49:36.981Z,5.07
2018-07-07T13:52:05.927Z,5.50
2018-07-07T13:54:34.353Z,5.87
2018-07-07T13:57:02.992Z,5.60
2018-07-07T13:59:31.692Z,5.13
2018-07-07T14:02:00.050Z,6.10
2018-07-07T14:04:28.432Z,5.90
2018-07-07T14:06:56.706Z,12.80
2018-07-07T14:09:25.149Z,7.33
2018-07-07T14:11:53.489Z,6.80
2018-07-07T14:14:21.829Z,5.47
2018-07-07T14:16:50.101Z,5.50
2018-07-07T14:19:18.923Z,6.13
2018-07-07T14:21:48.180Z,5.60
2018-07-07T14:24:16.528Z,6.20
2018-07-07T14:26:45.173Z,5.10
2018-07-07T14:29:13.718Z,4.87
2018-07-07T14:31:42.084Z,5.20
2018-07-07T14:34:10.430Z,6.50
2018-07-07T14:36:39.972Z,5.17
2018-07-07T14:39:10.048Z,5.50
2018-07-07T14:41:38.814Z,5.27
2018-07-07T14:44:09.036Z,4.93
2018-07-07T14:46:37.766Z,5.87
2018-07-07T14:49:06.438Z,5.73
2018-07-07T14:51:34.816Z,7.07
2018-07-07T14:54:03.271Z,6.03
2018-07-07T14:56:31.870Z,5.40
2018-07-07T14:59:00.133Z,7.37
2018-07-07T15:01:28.622Z,5.83
2018-07-07T15:04:01.476Z,5.70
2018-07-07T15:06:30.196Z,5.43
2018-07-07T15:08:58.470Z,5.63
2018-07-07T15:11:26.837Z,6.60
2018-07-07T15:13:55.208Z,7.07
2018-07-07T15:16:23.547Z,6.23
2018-07-07T15:18:51.901Z,7.40
2018-07-07T15:21:20.295Z,6.17
2018-07-07T15:23:48.626Z,6.97
2018-07-07T15:26:17.125Z,5.63
2018-07-07T15:28:45.387Z,5.83
2018-07-07T15:31:13.654Z,5.83
2018-07-07T15:33:42.008Z,6.30
2018-07-07T15:36:10.404Z,6.47
2018-07-07T15:38:38.805Z,6.30
2018-07-07T15:41:07.052Z,6.97
2018-07-07T15:43:35.516Z,7.27
2018-07-07T15:46:03.984Z,8.30
2018-07-07T15:48:32.206Z,6.90
2018-07-07T15:51:00.587Z,8.17
2018-07-07T15:53:28.858Z,7.30
2018-07-07T15:55:57.251Z,7.00
2018-07-07T15:58:25.581Z,7.17
2018-07-07T16:00:53.939Z,7.63
2018-07-07T16:03:22.329Z,6.73
2018-07-07T16:05:50.935Z,7.40
2018-07-07T16:08:19.228Z,7.17
2018-07-07T16:10:47.798Z,6.93
2018-07-07T16:13:16.315Z,6.23
2018-07-07T16:15:44.962Z,5.67
2018-07-07T16:18:13.525Z,4.70
2018-07-07T16:20:42.137Z,4.70
2018-07-07T16:23:10.893Z,5.33
2018-07-07T16:25:39.740Z,4.67
2018-07-07T16:28:08.358Z,8.00
2018-07-07T16:30:36.787Z,5.27
2018-07-07T16:33:06.474Z,6.50
2018-07-07T16:35:35.190Z,5.73
2018-07-07T16:38:04.182Z,5.87
2018-07-07T16:40:32.833Z,6.10
2018-07-07T16:43:01.343Z,6.27
2018-07-07T16:45:29.935Z,5.90
2018-07-07T16:47:58.783Z,6.13
2018-07-07T16:50:27.674Z,6.27
2018-07-07T16:52:56.071Z,5.73
2018-07-07T16:55:25.275Z,8.20
2018-07-07T16:57:53.736Z,6.10
2018-07-07T17:00:22.351Z,5.63
2018-07-07T17:02:52.127Z,5.50
2018-07-07T17:05:20.715Z,6.13
2018-07-07T17:07:49.692Z,5.97
2018-07-07T17:10:19.169Z,41.03
2018-07-07T17:12:48.092Z,8.63
2018-07-07T17:15:16.675Z,6.90
2018-07-07T17:17:45.603Z,5.87
2018-07-07T17:20:14.300Z,6.40
2018-07-07T17:22:42.973Z,6.43
2018-07-07T17:25:11.942Z,6.70
2018-07-07T17:27:40.524Z,6.20
2018-07-07T17:30:09.220Z,7.17
2018-07-07T17:32:37.889Z,5.70
2018-07-07T17:35:06.553Z,7.23
2018-07-07T17:37:35.351Z,6.60
2018-07-07T17:40:03.897Z,6.70
2018-07-07T17:42:32.390Z,6.07
2018-07-07T17:45:01.804Z,6.03
2018-07-07T17:47:30.603Z,6.83
2018-07-07T17:50:01.454Z,6.30
2018-07-07T17:52:30.654Z,7.23
2018-07-07T17:54:59.107Z,6.70
2018-07-07T17:57:27.737Z,6.87
2018-07-07T17:59:56.999Z,7.60
2018-07-07T18:02:25.748Z,6.77
2018-07-07T18:04:54.272Z,5.73
2018-07-07T18:07:22.697Z,5.97
2018-07-07T18:09:51.539Z,6.90
2018-07-07T18:12:19.898Z,6.00
2018-07-07T18:14:48.399Z,6.27
2018-07-07T18:17:16.974Z,6.90
2018-07-07T18:19:45.420Z,6.27
2018-07-07T18:22:13.939Z,5.53
2018-07-07T18:24:42.240Z,6.60
2018-07-07T18:27:10.510Z,6.53
2018-07-07T18:29:38.795Z,6.07
2018-07-07T18:32:07.450Z,6.97
2018-07-07T18:34:35.809Z,6.43
2018-07-07T18:37:05.365Z,7.60
2018-07-07T18:39:33.802Z,6.93
2018-07-07T18:42:02.366Z,6.53
2018-07-07T18:44:30.797Z,7.40
2018-07-07T18:46:59.132Z,6.40
2018-07-07T18:49:28.101Z,7.43
2018-07-07T18:51:56.910Z,8.23
2018-07-07T18:54:25.270Z,5.30
2018-07-07T18:56:53.913Z,6.60
2018-07-07T18:59:22.127Z,6.63
2018-07-07T19:01:50.523Z,5.63
2018-07-07T19:04:18.870Z,5.90
2018-07-07T19:06:47.265Z,6.37
2018-07-07T19:09:15.661Z,7.57
2018-07-07T19:11:44.272Z,6.37
2018-07-07T19:14:12.840Z,6.83
2018-07-07T19:16:41.111Z,6.43
2018-07-07T19:19:09.421Z,6.30
2018-07-07T19:21:43.827Z,7.17
2018-07-07T19:24:17.931Z,7.20
2018-07-07T19:26:49.555Z,5.97
2018-07-07T19:29:18.367Z,5.50
2018-07-07T19:31:52.261Z,6.47
2018-07-07T19:36:31.413Z,7.20
2018-07-07T19:38:59.930Z,5.87
2018-07-07T19:41:28.509Z,5.83
2018-07-07T19:43:57.233Z,5.93
2018-07-07T19:46:25.607Z,5.60
2018-07-07T19:48:54.095Z,4.80
2018-07-07T19:51:22.433Z,6.17
2018-07-07T19:53:50.775Z,5.50
2018-07-07T19:56:19.025Z,5.83
2018-07-07T19:58:47.404Z,5.57
2018-07-07T20:01:15.836Z,6.00
2018-07-07T20:03:44.143Z,5.90
2018-07-07T20:06:12.526Z,6.03
2018-07-07T20:08:40.811Z,5.40
2018-07-07T20:11:09.029Z,6.37
2018-07-07T20:13:37.361Z,6.33
2018-07-07T20:16:12.520Z,5.57
2018-07-07T20:19:03.851Z,5.50
2018-07-07T20:22:05.782Z,7.10
2018-07-07T20:24:37.147Z,7.23
2018-07-07T20:27:12.262Z,6.60
2018-07-07T20:29:40.718Z,6.40
2018-07-07T20:32:14.696Z,7.00
2018-07-07T20:34:43.128Z,5.70
2018-07-07T20:37:11.399Z,4.97
2018-07-07T20:39:39.913Z,5.53
2018-07-07T20:42:14.465Z,4.80
2018-07-07T20:44:42.878Z,4.60
2018-07-07T20:47:11.235Z,4.40
2018-07-07T20:49:39.937Z,4.80
2018-07-07T20:52:08.410Z,4.40
2018-07-07T20:54:36.855Z,9.53
2018-07-07T20:57:05.207Z,5.23
2018-07-07T20:59:33.498Z,4.50
2018-07-07T21:02:02.234Z,4.50
2018-07-07T21:04:30.643Z,4.67
2018-07-07T21:06:59.369Z,5.80
2018-07-07T21:09:27.735Z,4.87
2018-07-07T21:11:56.051Z,4.07
2018-07-07T21:14:24.273Z,3.87
2018-07-07T21:16:52.533Z,3.20
2018-07-07T21:19:20.691Z,3.93
2018-07-07T21:21:49.018Z,3.73
2018-07-07T21:24:17.547Z,10.47
2018-07-07T21:26:45.981Z,4.70
2018-07-07T21:29:14.299Z,3.93
2018-07-07T21:31:42.888Z,4.03
2018-07-07T21:34:11.408Z,4.77
2018-07-07T21:36:39.638Z,5.00
2018-07-07T21:39:07.936Z,4.50
2018-07-07T21:41:36.220Z,5.80
2018-07-07T21:44:04.939Z,3.63
2018-07-07T21:46:33.160Z,3.43
2018-07-07T21:49:01.542Z,4.13
2018-07-07T21:51:29.921Z,3.90
2018-07-07T21:53:58.316Z,4.10
2018-07-07T21:56:26.615Z,3.50
2018-07-07T21:59:29.132Z,4.20
2018-07-07T22:02:03.254Z,3.60
2018-07-07T22:04:37.380Z,3.53
2018-07-07T22:07:13.077Z,4.90
2018-07-07T22:09:42.331Z,2.80
2018-07-07T22:12:10.768Z,3.80
2018-07-07T22:14:39.092Z,4.43
2018-07-07T22:17:07.449Z,2.50
2018-07-07T22:19:35.793Z,3.13
2018-07-07T22:22:08.895Z,3.47
2018-07-07T22:24:37.785Z,4.90
2018-07-07T22:27:07.765Z,2.73
2018-07-07T22:29:36.101Z,3.80
2018-07-07T22:32:21.870Z,3.70
2018-07-07T22:34:50.757Z,6.73
2018-07-07T22:37:19.094Z,8.67
2018-07-07T22:39:47.569Z,8.13
2018-07-07T22:42:21.085Z,7.33
2018-07-07T22:44:49.913Z,7.10
2018-07-07T22:47:19.362Z,8.00
2018-07-07T22:49:49.014Z,6.70
2018-07-07T22:52:18.167Z,4.83
2018-07-07T22:54:49.656Z,4.13
2018-07-07T22:57:18.203Z,3.60
2018-07-07T22:59:46.468Z,3.40
2018-07-07T23:02:14.842Z,6.93
2018-07-07T23:04:43.247Z,3.97
2018-07-07T23:07:11.833Z,4.23
2018-07-07T23:09:40.931Z,10.97
2018-07-07T23:12:10.333Z,4.90
2018-07-07T23:14:38.757Z,3.90
2018-07-07T23:17:11.697Z,3.73
2018-07-07T23:19:40.381Z,5.23
2018-07-07T23:22:09.176Z,4.13
2018-07-07T23:24:38.048Z,2.70
2018-07-07T23:27:06.294Z,2.80
2018-07-07T23:29:34.707Z,3.80
2018-07-07T23:32:03.205Z,2.90
2018-07-07T23:34:32.491Z,3.80
2018-07-07T23:37:00.873Z,3.90
2018-07-07T23:39:29.189Z,2.97
2018-07-07T23:41:57.561Z,4.00
2018-07-07T23:44:25.874Z,3.00
2018-07-07T23:46:59.119Z,3.23
2018-07-07T23:49:27.365Z,2.13
2018-07-07T23:51:55.653Z,3.00
2018-07-07T23:54:24.168Z,2.70
2018-07-07T23:56:52.846Z,3.80
2018-07-07T23:59:22.243Z,3.20
